Terminal Aerodrome Forecast
Issued by NWS North Platte, NE

Home | Current Version | Previous Version | Graphics & Text | Print | Product List | Glossary On
Versions: 1 2 3 4 5 6 7 8 9 10 11 12 13 14 15 16 17 18 19 20 21 22 23 24 25 26 27 28 29 30
000
FTUS43 KLBF 171700
TAFVTN
TAF
KVTN 171737Z 1718/1818 16010KT P6SM OVC005
     FM172100 16010KT P6SM OVC008
     FM180800 VRB05KT P6SM OVC005
     FM181500 21005KT P6SM OVC010=

USA.gov is the U.S. government's official web portal to all federal, state and local government web resources and services.